sensor_id;sensor_type;location;lat;lon;timestamp;pressure;altitude;pressure_sealevel;temperature;humidity
82375;BME280;72005;50.496;15.798;2024-03-23T00:53:48;94963.59;;;9.23;84.97
82375;BME280;72005;50.496;15.798;2024-03-23T00:56:14;94970.16;;;9.21;84.97
82375;BME280;72005;50.496;15.798;2024-03-23T00:58:40;94962.00;;;9.17;85.06
82375;BME280;72005;50.496;15.798;2024-03-23T01:01:05;94960.44;;;9.11;84.67
82375;BME280;72005;50.496;15.798;2024-03-23T01:03:31;94953.38;;;9.07;84.68
82375;BME280;72005;50.496;15.798;2024-03-23T01:06:01;94956.00;;;9.01;84.54
82375;BME280;72005;50.496;15.798;2024-03-23T01:08:27;94944.72;;;9.01;84.64
82375;BME280;72005;50.496;15.798;2024-03-23T01:11:00;94942.63;;;8.98;84.58
82375;BME280;72005;50.496;15.798;2024-03-23T01:13:27;94940.78;;;8.98;84.45
82375;BME280;72005;50.496;15.798;2024-03-23T01:15:54;94930.81;;;9.00;84.64
82375;BME280;72005;50.496;15.798;2024-03-23T01:18:21;94929.25;;;8.99;84.72
82375;BME280;72005;50.496;15.798;2024-03-23T01:20:47;94921.16;;;8.96;85.37
82375;BME280;72005;50.496;15.798;2024-03-23T01:23:13;94914.34;;;8.90;85.37
82375;BME280;72005;50.496;15.798;2024-03-23T01:25:39;94911.44;;;8.81;85.35
82375;BME280;72005;50.496;15.798;2024-03-23T01:28:06;94920.88;;;8.72;85.78
82375;BME280;72005;50.496;15.798;2024-03-23T01:30:32;94916.41;;;8.72;85.80
82375;BME280;72005;50.496;15.798;2024-03-23T01:32:58;94914.81;;;8.71;85.29
82375;BME280;72005;50.496;15.798;2024-03-23T01:35:24;94905.16;;;8.72;85.36
82375;BME280;72005;50.496;15.798;2024-03-23T01:37:50;94904.63;;;8.70;85.75
82375;BME280;72005;50.496;15.798;2024-03-23T01:40:19;94893.88;;;8.71;85.36
82375;BME280;72005;50.496;15.798;2024-03-23T01:42:58;94891.53;;;8.70;85.51
82375;BME280;72005;50.496;15.798;2024-03-23T01:45:24;94888.66;;;8.76;85.60
82375;BME280;72005;50.496;15.798;2024-03-23T01:47:52;94884.22;;;8.82;85.39
82375;BME280;72005;50.496;15.798;2024-03-23T01:50:21;94881.06;;;8.85;85.57
82375;BME280;72005;50.496;15.798;2024-03-23T01:52:48;94883.16;;;8.88;85.39
82375;BME280;72005;50.496;15.798;2024-03-23T01:55:13;94886.31;;;8.90;85.48
82375;BME280;72005;50.496;15.798;2024-03-23T01:57:39;94883.41;;;8.92;85.53
82375;BME280;72005;50.496;15.798;2024-03-23T02:00:06;94873.22;;;8.95;85.60
82375;BME280;72005;50.496;15.798;2024-03-23T02:02:32;94865.88;;;8.97;85.12
82375;BME280;72005;50.496;15.798;2024-03-23T02:04:57;94864.31;;;8.96;85.09
82375;BME280;72005;50.496;15.798;2024-03-23T02:07:24;94861.69;;;8.96;85.02
82375;BME280;72005;50.496;15.798;2024-03-23T02:09:53;94852.78;;;8.92;85.03
82375;BME280;72005;50.496;15.798;2024-03-23T02:12:19;94849.13;;;8.88;85.33
82375;BME280;72005;50.496;15.798;2024-03-23T02:14:46;94842.84;;;8.79;85.75
82375;BME280;72005;50.496;15.798;2024-03-23T02:17:13;94836.28;;;8.71;85.54
82375;BME280;72005;50.496;15.798;2024-03-23T02:19:39;94839.44;;;8.63;85.78
82375;BME280;72005;50.496;15.798;2024-03-23T02:22:04;94843.59;;;8.54;85.61
82375;BME280;72005;50.496;15.798;2024-03-23T02:24:30;94831.03;;;8.51;85.63
82375;BME280;72005;50.496;15.798;2024-03-23T02:26:56;94828.16;;;8.47;86.07
82375;BME280;72005;50.496;15.798;2024-03-23T02:29:21;94809.84;;;8.47;85.43
82375;BME280;72005;50.496;15.798;2024-03-23T02:31:47;94817.44;;;8.44;85.76
82375;BME280;72005;50.496;15.798;2024-03-23T02:34:13;94818.47;;;8.43;85.38
82375;BME280;72005;50.496;15.798;2024-03-23T02:36:39;94816.38;;;8.45;85.45
82375;BME280;72005;50.496;15.798;2024-03-23T02:39:04;94806.44;;;8.47;85.88
82375;BME280;72005;50.496;15.798;2024-03-23T02:41:30;94806.69;;;8.50;85.75
82375;BME280;72005;50.496;15.798;2024-03-23T02:43:56;94811.41;;;8.53;86.08
82375;BME280;72005;50.496;15.798;2024-03-23T02:46:22;94796.78;;;8.57;86.13
82375;BME280;72005;50.496;15.798;2024-03-23T02:48:50;94804.88;;;8.56;85.74
82375;BME280;72005;50.496;15.798;2024-03-23T02:51:16;94788.63;;;8.54;85.77
82375;BME280;72005;50.496;15.798;2024-03-23T02:53:42;94796.22;;;8.50;85.93
82375;BME280;72005;50.496;15.798;2024-03-23T02:56:07;94789.44;;;8.49;86.10
82375;BME280;72005;50.496;15.798;2024-03-23T02:58:33;94802.25;;;8.51;85.58
82375;BME280;72005;50.496;15.798;2024-03-23T03:00:59;94787.84;;;8.53;86.19
82375;BME280;72005;50.496;15.798;2024-03-23T03:03:25;94784.19;;;8.54;85.99
82375;BME280;72005;50.496;15.798;2024-03-23T03:06:00;94787.06;;;8.53;86.15
82375;BME280;72005;50.496;15.798;2024-03-23T03:08:25;94780.53;;;8.50;86.48
82375;BME280;72005;50.496;15.798;2024-03-23T03:10:51;94781.59;;;8.49;86.03
82375;BME280;72005;50.496;15.798;2024-03-23T03:13:17;94774.25;;;8.46;86.27
82375;BME280;72005;50.496;15.798;2024-03-23T03:15:43;94767.72;;;8.44;86.31
82375;BME280;72005;50.496;15.798;2024-03-23T03:18:09;94772.16;;;8.43;86.45
82375;BME280;72005;50.496;15.798;2024-03-23T03:20:39;94771.09;;;8.39;86.23
82375;BME280;72005;50.496;15.798;2024-03-23T03:23:06;94763.75;;;8.36;86.69
82375;BME280;72005;50.496;15.798;2024-03-23T03:25:32;94762.19;;;8.30;87.10
82375;BME280;72005;50.496;15.798;2024-03-23T03:27:58;94755.38;;;8.24;87.14
82375;BME280;72005;50.496;15.798;2024-03-23T03:30:23;94752.22;;;8.17;86.92
82375;BME280;72005;50.496;15.798;2024-03-23T03:32:49;94741.78;;;8.11;86.95
82375;BME280;72005;50.496;15.798;2024-03-23T03:35:15;94747.25;;;8.10;86.68
82375;BME280;72005;50.496;15.798;2024-03-23T03:37:41;94753.25;;;8.10;87.26
82375;BME280;72005;50.496;15.798;2024-03-23T03:40:07;94748.03;;;8.10;87.46
82375;BME280;72005;50.496;15.798;2024-03-23T03:42:34;94749.06;;;8.09;87.48
82375;BME280;72005;50.496;15.798;2024-03-23T03:45:00;94745.94;;;8.12;87.38
82375;BME280;72005;50.496;15.798;2024-03-23T03:47:26;94746.72;;;8.13;87.33
82375;BME280;72005;50.496;15.798;2024-03-23T03:49:52;94745.16;;;8.12;87.40
82375;BME280;72005;50.496;15.798;2024-03-23T03:52:17;94742.00;;;8.10;87.72
82375;BME280;72005;50.496;15.798;2024-03-23T03:54:43;94733.38;;;8.09;87.64
82375;BME280;72005;50.496;15.798;2024-03-23T03:57:09;94738.63;;;8.09;87.56
82375;BME280;72005;50.496;15.798;2024-03-23T03:59:35;94729.47;;;8.07;87.80
82375;BME280;72005;50.496;15.798;2024-03-23T04:02:00;94733.38;;;8.04;87.47
82375;BME280;72005;50.496;15.798;2024-03-23T04:04:26;94721.06;;;8.05;87.45
82375;BME280;72005;50.496;15.798;2024-03-23T04:07:02;94717.44;;;8.01;87.49
82375;BME280;72005;50.496;15.798;2024-03-23T04:09:28;94709.81;;;7.99;88.30
82375;BME280;72005;50.496;15.798;2024-03-23T04:11:55;94717.94;;;7.98;88.33
82375;BME280;72005;50.496;15.798;2024-03-23T04:14:21;94712.47;;;7.94;88.17
82375;BME280;72005;50.496;15.798;2024-03-23T04:16:47;94712.47;;;7.94;88.48
82375;BME280;72005;50.496;15.798;2024-03-23T04:19:12;94715.56;;;7.96;88.31
82375;BME280;72005;50.496;15.798;2024-03-23T04:21:38;94718.19;;;7.96;88.37
82375;BME280;72005;50.496;15.798;2024-03-23T04:24:04;94718.19;;;7.91;88.07
82375;BME280;72005;50.496;15.798;2024-03-23T04:26:30;94727.06;;;7.90;88.78
82375;BME280;72005;50.496;15.798;2024-03-23T04:29:05;94727.59;;;7.87;88.71
82375;BME280;72005;50.496;15.798;2024-03-23T04:31:31;94728.38;;;7.87;88.88
82375;BME280;72005;50.496;15.798;2024-03-23T04:34:01;94724.97;;;7.87;88.95
82375;BME280;72005;50.496;15.798;2024-03-23T04:36:26;94719.78;;;7.92;89.32
82375;BME280;72005;50.496;15.798;2024-03-23T04:38:52;94705.63;;;7.93;88.97
82375;BME280;72005;50.496;15.798;2024-03-23T04:41:18;94702.78;;;7.95;89.17
82375;BME280;72005;50.496;15.798;2024-03-23T04:43:44;94700.44;;;7.98;89.00
82375;BME280;72005;50.496;15.798;2024-03-23T04:46:09;94696.25;;;7.97;89.05
82375;BME280;72005;50.496;15.798;2024-03-23T04:48:35;94695.72;;;7.95;88.86
82375;BME280;72005;50.496;15.798;2024-03-23T04:51:02;94693.88;;;7.96;88.86
82375;BME280;72005;50.496;15.798;2024-03-23T04:53:27;94680.03;;;7.95;89.33
82375;BME280;72005;50.496;15.798;2024-03-23T04:55:56;94682.66;;;7.95;88.47
82375;BME280;72005;50.496;15.798;2024-03-23T04:58:22;94682.09;;;7.88;88.73
82375;BME280;72005;50.496;15.798;2024-03-23T05:00:56;94665.91;;;7.81;88.78
82375;BME280;72005;50.496;15.798;2024-03-23T05:03:22;94665.09;;;7.75;89.47
82375;BME280;72005;50.496;15.798;2024-03-23T05:05:48;94665.88;;;7.71;89.81
82375;BME280;72005;50.496;15.798;2024-03-23T05:08:15;94663.28;;;7.65;89.83
82375;BME280;72005;50.496;15.798;2024-03-23T05:10:42;94662.75;;;7.63;89.77
82375;BME280;72005;50.496;15.798;2024-03-23T05:13:08;94665.88;;;7.65;89.98
82375;BME280;72005;50.496;15.798;2024-03-23T05:15:34;94665.88;;;7.71;89.85
82375;BME280;72005;50.496;15.798;2024-03-23T05:18:00;94663.28;;;7.76;89.73
82375;BME280;72005;50.496;15.798;2024-03-23T05:20:26;94664.34;;;7.80;89.78
82375;BME280;72005;50.496;15.798;2024-03-23T05:22:54;94663.81;;;7.83;89.56
82375;BME280;72005;50.496;15.798;2024-03-23T05:25:20;94663.56;;;7.89;89.45
82375;BME280;72005;50.496;15.798;2024-03-23T05:27:45;94656.75;;;7.94;89.50
82375;BME280;72005;50.496;15.798;2024-03-23T05:30:11;94657.03;;;7.92;89.92
82375;BME280;72005;50.496;15.798;2024-03-23T05:32:37;94646.56;;;7.92;89.53
82375;BME280;72005;50.496;15.798;2024-03-23T05:35:07;94644.97;;;7.91;89.76
82375;BME280;72005;50.496;15.798;2024-03-23T05:37:33;94637.66;;;7.93;89.63
82375;BME280;72005;50.496;15.798;2024-03-23T05:40:00;94627.47;;;7.97;89.54
82375;BME280;72005;50.496;15.798;2024-03-23T05:42:26;94626.16;;;7.99;90.14
82375;BME280;72005;50.496;15.798;2024-03-23T05:44:52;94639.22;;;8.04;90.12
82375;BME280;72005;50.496;15.798;2024-03-23T05:47:18;94641.56;;;8.11;89.78
82375;BME280;72005;50.496;15.798;2024-03-23T05:49:45;94636.63;;;8.14;89.90
82375;BME280;72005;50.496;15.798;2024-03-23T05:52:12;94632.97;;;8.21;89.87
82375;BME280;72005;50.496;15.798;2024-03-23T05:54:37;94628.22;;;8.23;89.90
82375;BME280;72005;50.496;15.798;2024-03-23T05:57:04;94619.88;;;8.26;90.11
82375;BME280;72005;50.496;15.798;2024-03-23T05:59:30;94618.28;;;8.35;90.39
82375;BME280;72005;50.496;15.798;2024-03-23T06:01:56;94615.69;;;8.40;90.48
82375;BME280;72005;50.496;15.798;2024-03-23T06:04:22;94610.97;;;8.47;90.24
82375;BME280;72005;50.496;15.798;2024-03-23T06:06:48;94607.28;;;8.48;90.38
82375;BME280;72005;50.496;15.798;2024-03-23T06:09:14;94604.16;;;8.46;90.46
82375;BME280;72005;50.496;15.798;2024-03-23T06:11:40;94626.41;;;8.49;90.20
82375;BME280;72005;50.496;15.798;2024-03-23T06:14:05;94608.34;;;8.52;90.15
82375;BME280;72005;50.496;15.798;2024-03-23T06:16:31;94606.50;;;8.38;91.14
82375;BME280;72005;50.496;15.798;2024-03-23T06:18:57;94601.53;;;8.36;91.34
82375;BME280;72005;50.496;15.798;2024-03-23T06:21:24;94601.28;;;8.38;90.83
82375;BME280;72005;50.496;15.798;2024-03-23T06:23:53;94603.13;;;8.42;90.86
82375;BME280;72005;50.496;15.798;2024-03-23T06:26:20;94597.88;;;8.47;90.50
82375;BME280;72005;50.496;15.798;2024-03-23T06:28:46;94594.72;;;8.50;90.36
82375;BME280;72005;50.496;15.798;2024-03-23T06:31:13;94590.00;;;8.52;90.63
82375;BME280;72005;50.496;15.798;2024-03-23T06:33:39;94590.00;;;8.57;91.12
82375;BME280;72005;50.496;15.798;2024-03-23T06:36:06;94584.78;;;8.57;91.42
82375;BME280;72005;50.496;15.798;2024-03-23T06:38:31;94582.66;;;8.59;91.33
82375;BME280;72005;50.496;15.798;2024-03-23T06:40:57;94575.84;;;8.58;91.65
82375;BME280;72005;50.496;15.798;2024-03-23T06:43:23;94575.84;;;8.58;91.15
82375;BME280;72005;50.496;15.798;2024-03-23T06:45:53;94569.56;;;8.59;90.90
82375;BME280;72005;50.496;15.798;2024-03-23T06:48:19;94571.16;;;8.61;91.05
82375;BME280;72005;50.496;15.798;2024-03-23T06:50:46;94573.22;;;8.64;91.10
82375;BME280;72005;50.496;15.798;2024-03-23T06:53:15;94564.06;;;8.66;91.30
82375;BME280;72005;50.496;15.798;2024-03-23T06:55:41;94556.75;;;8.63;91.04
82375;BME280;72005;50.496;15.798;2024-03-23T06:58:07;94554.91;;;8.64;91.16
82375;BME280;72005;50.496;15.798;2024-03-23T07:00:33;94554.38;;;8.67;91.02
82375;BME280;72005;50.496;15.798;2024-03-23T07:02:59;94554.09;;;8.68;90.98
82375;BME280;72005;50.496;15.798;2024-03-23T07:05:26;94550.44;;;8.69;90.70
82375;BME280;72005;50.496;15.798;2024-03-23T07:07:51;94540.75;;;8.70;90.98
82375;BME280;72005;50.496;15.798;2024-03-23T07:10:17;94536.06;;;8.67;91.13
82375;BME280;72005;50.496;15.798;2024-03-23T07:12:43;94524.53;;;8.63;91.53
82375;BME280;72005;50.496;15.798;2024-03-23T07:15:09;94525.38;;;8.53;91.87
82375;BME280;72005;50.496;15.798;2024-03-23T07:17:34;94518.28;;;8.53;91.86
82375;BME280;72005;50.496;15.798;2024-03-23T07:20:02;94527.19;;;8.57;91.51
82375;BME280;72005;50.496;15.798;2024-03-23T07:22:32;94521.97;;;8.57;92.09
82375;BME280;72005;50.496;15.798;2024-03-23T07:25:01;94526.38;;;8.57;91.85
82375;BME280;72005;50.496;15.798;2024-03-23T07:27:27;94507.28;;;8.56;91.62
82375;BME280;72005;50.496;15.798;2024-03-23T07:29:53;94491.06;;;8.54;91.83
82375;BME280;72005;50.496;15.798;2024-03-23T07:32:20;94491.03;;;8.59;91.71
82375;BME280;72005;50.496;15.798;2024-03-23T07:34:46;94485.00;;;8.64;91.82
82375;BME280;72005;50.496;15.798;2024-03-23T07:37:12;94473.22;;;8.67;91.65
82375;BME280;72005;50.496;15.798;2024-03-23T07:39:39;94468.47;;;8.69;92.05
82375;BME280;72005;50.496;15.798;2024-03-23T07:42:05;94471.94;;;8.64;92.19
82375;BME280;72005;50.496;15.798;2024-03-23T07:44:31;94466.94;;;8.68;92.06
82375;BME280;72005;50.496;15.798;2024-03-23T07:46:56;94472.16;;;8.73;92.27
82375;BME280;72005;50.496;15.798;2024-03-23T07:49:22;94474.25;;;8.66;92.56
82375;BME280;72005;50.496;15.798;2024-03-23T07:51:48;94475.81;;;8.72;92.12
82375;BME280;72005;50.496;15.798;2024-03-23T07:54:14;94473.69;;;8.79;91.65
82375;BME280;72005;50.496;15.798;2024-03-23T07:56:39;94470.50;;;8.82;91.60
82375;BME280;72005;50.496;15.798;2024-03-23T07:59:05;94484.91;;;8.85;91.44
82375;BME280;72005;50.496;15.798;2024-03-23T08:01:31;94498.75;;;8.90;90.89
82375;BME280;72005;50.496;15.798;2024-03-23T08:03:57;94496.88;;;8.96;90.83
82375;BME280;72005;50.496;15.798;2024-03-23T08:06:22;94485.88;;;8.99;91.15
82375;BME280;72005;50.496;15.798;2024-03-23T08:08:54;94479.31;;;9.01;91.10
82375;BME280;72005;50.496;15.798;2024-03-23T08:11:26;94462.00;;;9.00;91.34
82375;BME280;72005;50.496;15.798;2024-03-23T08:13:52;94456.50;;;9.02;91.30
82375;BME280;72005;50.496;15.798;2024-03-23T08:16:18;94451.25;;;9.07;91.29
82375;BME280;72005;50.496;15.798;2024-03-23T08:18:44;94435.97;;;9.14;91.64
82375;BME280;72005;50.496;15.798;2024-03-23T08:21:10;94427.22;;;9.29;92.53
82375;BME280;72005;50.496;15.798;2024-03-23T08:23:36;94416.31;;;9.46;92.31
82375;BME280;72005;50.496;15.798;2024-03-23T08:26:11;94410.31;;;9.45;91.24
82375;BME280;72005;50.496;15.798;2024-03-23T08:28:37;94390.47;;;9.34;91.39
82375;BME280;72005;50.496;15.798;2024-03-23T08:31:10;94376.28;;;9.40;91.13
82375;BME280;72005;50.496;15.798;2024-03-23T08:33:37;94379.19;;;9.63;91.00
82375;BME280;72005;50.496;15.798;2024-03-23T08:38:30;94356.88;;;10.32;89.59
82375;BME280;72005;50.496;15.798;2024-03-23T08:41:01;94360.50;;;10.74;88.87
82375;BME280;72005;50.496;15.798;2024-03-23T08:43:29;94355.34;;;11.16;87.51
82375;BME280;72005;50.496;15.798;2024-03-23T08:46:14;94344.31;;;11.60;87.93
82375;BME280;72005;50.496;15.798;2024-03-23T08:48:42;94343.47;;;12.06;85.71
82375;BME280;72005;50.496;15.798;2024-03-23T08:51:10;94329.53;;;12.42;84.91
82375;BME280;72005;50.496;15.798;2024-03-23T08:53:36;94328.34;;;12.71;83.31
82375;BME280;72005;50.496;15.798;2024-03-23T08:56:03;94317.66;;;12.67;81.40
82375;BME280;72005;50.496;15.798;2024-03-23T08:58:30;94324.28;;;12.64;80.98
82375;BME280;72005;50.496;15.798;2024-03-23T09:00:57;94320.09;;;12.63;81.11
82375;BME280;72005;50.496;15.798;2024-03-23T09:03:28;94325.44;;;12.72;81.55
82375;BME280;72005;50.496;15.798;2024-03-23T09:05:54;94323.31;;;12.83;81.61
82375;BME280;72005;50.496;15.798;2024-03-23T09:08:21;94323.13;;;13.02;82.01
82375;BME280;72005;50.496;15.798;2024-03-23T09:10:47;94316.09;;;13.20;81.98
82375;BME280;72005;50.496;15.798;2024-03-23T09:13:13;94322.81;;;13.26;80.85
82375;BME280;72005;50.496;15.798;2024-03-23T09:15:51;94320.19;;;13.26;79.88
82375;BME280;72005;50.496;15.798;2024-03-23T09:18:19;94305.25;;;13.21;79.38
82375;BME280;72005;50.496;15.798;2024-03-23T09:20:45;94301.91;;;13.29;80.35
82375;BME280;72005;50.496;15.798;2024-03-23T09:23:11;94306.38;;;13.29;79.66
82375;BME280;72005;50.496;15.798;2024-03-23T09:25:40;94299.78;;;13.40;79.11
82375;BME280;72005;50.496;15.798;2024-03-23T09:28:06;94301.53;;;13.53;79.13
82375;BME280;72005;50.496;15.798;2024-03-23T09:30:35;94287.59;;;13.62;78.40
82375;BME280;72005;50.496;15.798;2024-03-23T09:33:01;94275.50;;;13.69;78.66
82375;BME280;72005;50.496;15.798;2024-03-23T09:35:27;94289.19;;;13.71;77.93
82375;BME280;72005;50.496;15.798;2024-03-23T09:37:52;94285.91;;;13.74;77.85
82375;BME280;72005;50.496;15.798;2024-03-23T09:40:18;94273.66;;;13.70;77.36
82375;BME280;72005;50.496;15.798;2024-03-23T09:42:49;94263.16;;;13.87;79.00
82375;BME280;72005;50.496;15.798;2024-03-23T09:45:23;94258.53;;;14.19;79.12
82375;BME280;72005;50.496;15.798;2024-03-23T09:47:51;94248.88;;;14.40;77.14
82375;BME280;72005;50.496;15.798;2024-03-23T09:50:18;94247.50;;;14.52;77.06
82375;BME280;72005;50.496;15.798;2024-03-23T09:52:47;94254.94;;;14.58;75.58
82375;BME280;72005;50.496;15.798;2024-03-23T09:55:13;94247.59;;;14.81;76.68
82375;BME280;72005;50.496;15.798;2024-03-23T09:57:42;94257.06;;;15.00;75.86
82375;BME280;72005;50.496;15.798;2024-03-23T10:00:08;94249.41;;;15.07;75.63
82375;BME280;72005;50.496;15.798;2024-03-23T10:02:35;94253.63;;;15.08;75.59
82375;BME280;72005;50.496;15.798;2024-03-23T10:05:01;94242.25;;;14.99;74.88
82375;BME280;72005;50.496;15.798;2024-03-23T10:07:27;94229.69;;;14.96;75.59
82375;BME280;72005;50.496;15.798;2024-03-23T10:09:56;94233.25;;;15.00;75.15
82375;BME280;72005;50.496;15.798;2024-03-23T10:12:23;94221.59;;;14.92;75.62
82375;BME280;72005;50.496;15.798;2024-03-23T10:14:49;94215.72;;;14.86;74.89
82375;BME280;72005;50.496;15.798;2024-03-23T10:17:18;94213.81;;;14.96;74.99
82375;BME280;72005;50.496;15.798;2024-03-23T10:19:45;94220.06;;;14.91;76.32
82375;BME280;72005;50.496;15.798;2024-03-23T10:22:23;94211.00;;;15.01;75.06
82375;BME280;72005;50.496;15.798;2024-03-23T10:24:52;94214.75;;;15.00;74.82
82375;BME280;72005;50.496;15.798;2024-03-23T10:27:19;94205.88;;;14.96;75.17
82375;BME280;72005;50.496;15.798;2024-03-23T10:29:49;94202.63;;;14.90;74.37
82375;BME280;72005;50.496;15.798;2024-03-23T10:32:16;94205.94;;;14.78;74.93
82375;BME280;72005;50.496;15.798;2024-03-23T10:34:42;94200.22;;;14.68;75.08
82375;BME280;72005;50.496;15.798;2024-03-23T10:37:08;94208.94;;;14.59;75.65
82375;BME280;72005;50.496;15.798;2024-03-23T10:39:38;94198.66;;;14.49;75.42
82375;BME280;72005;50.496;15.798;2024-03-23T10:42:10;94209.41;;;14.35;74.92
82375;BME280;72005;50.496;15.798;2024-03-23T10:44:36;94210.66;;;14.20;74.31
82375;BME280;72005;50.496;15.798;2024-03-23T10:47:03;94207.25;;;14.03;74.49
82375;BME280;72005;50.496;15.798;2024-03-23T10:49:33;94223.84;;;13.86;74.67
82375;BME280;72005;50.496;15.798;2024-03-23T10:51:59;94238.25;;;13.71;76.44
82375;BME280;72005;50.496;15.798;2024-03-23T10:54:26;94238.38;;;13.48;76.59
82375;BME280;72005;50.496;15.798;2024-03-23T10:57:13;94248.03;;;13.22;77.38
82375;BME280;72005;50.496;15.798;2024-03-23T10:59:40;94249.91;;;12.90;77.86
82375;BME280;72005;50.496;15.798;2024-03-23T11:02:07;94257.81;;;12.68;78.48
82375;BME280;72005;50.496;15.798;2024-03-23T11:07:28;94259.63;;;12.36;78.96
82375;BME280;72005;50.496;15.798;2024-03-23T11:09:52;94270.13;;;12.13;79.90
82375;BME280;72005;50.496;15.798;2024-03-23T11:14:47;94281.00;;;11.98;80.10
82375;BME280;72005;50.496;15.798;2024-03-23T11:17:20;94270.56;;;11.93;79.92
82375;BME280;72005;50.496;15.798;2024-03-23T11:20:12;94280.63;;;11.77;80.92
82375;BME280;72005;50.496;15.798;2024-03-23T11:22:45;94277.69;;;11.79;81.22
82375;BME280;72005;50.496;15.798;2024-03-23T11:25:25;94272.22;;;11.75;81.78
82375;BME280;72005;50.496;15.798;2024-03-23T11:27:55;94270.38;;;11.75;81.83
82375;BME280;72005;50.496;15.798;2024-03-23T11:30:26;94268.34;;;11.72;82.82
82375;BME280;72005;50.496;15.798;2024-03-23T11:32:57;94258.69;;;11.68;83.40
82375;BME280;72005;50.496;15.798;2024-03-23T11:35:30;94261.03;;;11.69;83.45
82375;BME280;72005;50.496;15.798;2024-03-23T11:38:16;94263.94;;;11.68;83.71
82375;BME280;72005;50.496;15.798;2024-03-23T11:40:49;94268.81;;;11.74;83.43
82375;BME280;72005;50.496;15.798;2024-03-23T11:43:17;94283.03;;;11.73;84.10
82375;BME280;72005;50.496;15.798;2024-03-23T11:48:12;94272.41;;;11.79;83.66
82375;BME280;72005;50.496;15.798;2024-03-23T11:50:40;94270.28;;;11.81;83.04
82375;BME280;72005;50.496;15.798;2024-03-23T11:53:22;94261.53;;;11.71;83.21
82375;BME280;72005;50.496;15.798;2024-03-23T11:56:00;94267.56;;;11.72;82.94
82375;BME280;72005;50.496;15.798;2024-03-23T11:58:29;94259.59;;;11.63;82.93
82375;BME280;72005;50.496;15.798;2024-03-23T12:01:01;94262.81;;;11.60;82.47
82375;BME280;72005;50.496;15.798;2024-03-23T12:03:29;94265.03;;;11.53;82.59
82375;BME280;72005;50.496;15.798;2024-03-23T12:06:01;94260.38;;;11.50;82.71
82375;BME280;72005;50.496;15.798;2024-03-23T12:08:34;94258.03;;;11.48;82.77
82375;BME280;72005;50.496;15.798;2024-03-23T12:11:11;94272.06;;;11.44;83.05
82375;BME280;72005;50.496;15.798;2024-03-23T12:13:38;94264.75;;;11.41;82.47
82375;BME280;72005;50.496;15.798;2024-03-23T12:16:18;94261.94;;;11.37;83.54
82375;BME280;72005;50.496;15.798;2024-03-23T12:18:47;94271.78;;;11.45;84.11
82375;BME280;72005;50.496;15.798;2024-03-23T12:21:13;94271.28;;;11.57;83.36
82375;BME280;72005;50.496;15.798;2024-03-23T12:23:39;94278.09;;;11.58;82.71
82375;BME280;72005;50.496;15.798;2024-03-23T12:26:05;94270.59;;;11.65;83.05
82375;BME280;72005;50.496;15.798;2024-03-23T12:28:32;94275.94;;;11.74;82.70
82375;BME280;72005;50.496;15.798;2024-03-23T12:30:58;94278.25;;;11.75;82.50
82375;BME280;72005;50.496;15.798;2024-03-23T12:33:24;94267.66;;;11.81;82.15
82375;BME280;72005;50.496;15.798;2024-03-23T12:35:50;94264.41;;;11.84;81.56
82375;BME280;72005;50.496;15.798;2024-03-23T12:38:16;94274.16;;;11.83;81.64
82375;BME280;72005;50.496;15.798;2024-03-23T12:40:46;94258.06;;;11.85;81.24
82375;BME280;72005;50.496;15.798;2024-03-23T12:43:15;94276.13;;;11.78;82.39
82375;BME280;72005;50.496;15.798;2024-03-23T12:45:40;94279.25;;;11.80;81.76
82375;BME280;72005;50.496;15.798;2024-03-23T12:48:07;94282.56;;;11.71;82.27
82375;BME280;72005;50.496;15.798;2024-03-23T12:50:32;94302.06;;;11.57;82.44
82375;BME280;72005;50.496;15.798;2024-03-23T12:52:58;94328.13;;;11.39;83.45
82375;BME280;72005;50.496;15.798;2024-03-23T12:55:24;94341.75;;;11.27;82.90
82375;BME280;72005;50.496;15.798;2024-03-23T12:57:49;94356.72;;;11.13;83.74
82375;BME280;72005;50.496;15.798;2024-03-23T13:00:15;94340.13;;;10.99;83.37
82375;BME280;72005;50.496;15.798;2024-03-23T13:02:42;94337.75;;;10.83;83.25
82375;BME280;72005;50.496;15.798;2024-03-23T13:05:08;94341.25;;;10.79;83.21
82375;BME280;72005;50.496;15.798;2024-03-23T13:07:37;94335.78;;;10.75;83.34
82375;BME280;72005;50.496;15.798;2024-03-23T13:10:04;94343.19;;;10.73;83.23
82375;BME280;72005;50.496;15.798;2024-03-23T13:12:31;94348.44;;;10.73;83.68
82375;BME280;72005;50.496;15.798;2024-03-23T13:14:58;94343.19;;;10.73;83.27
82375;BME280;72005;50.496;15.798;2024-03-23T13:17:25;94352.41;;;10.71;82.91
82375;BME280;72005;50.496;15.798;2024-03-23T13:19:52;94347.44;;;10.69;82.50
82375;BME280;72005;50.496;15.798;2024-03-23T13:22:18;94370.28;;;10.50;81.53
82375;BME280;72005;50.496;15.798;2024-03-23T13:24:44;94356.25;;;10.41;80.65
82375;BME280;72005;50.496;15.798;2024-03-23T13:27:10;94345.44;;;10.23;80.65
82375;BME280;72005;50.496;15.798;2024-03-23T13:29:36;94346.16;;;10.10;80.45
82375;BME280;72005;50.496;15.798;2024-03-23T13:32:03;94361.72;;;10.01;81.07
82375;BME280;72005;50.496;15.798;2024-03-23T13:34:29;94380.16;;;9.96;81.16
82375;BME280;72005;50.496;15.798;2024-03-23T13:36:55;94411.38;;;9.92;81.24
82375;BME280;72005;50.496;15.798;2024-03-23T13:39:23;94411.34;;;9.74;81.04
82375;BME280;72005;50.496;15.798;2024-03-23T13:41:49;94415.81;;;9.73;80.72
82375;BME280;72005;50.496;15.798;2024-03-23T13:44:15;94438.91;;;9.71;80.47
82375;BME280;72005;50.496;15.798;2024-03-23T13:46:42;94432.53;;;9.53;79.39
82375;BME280;72005;50.496;15.798;2024-03-23T13:49:30;94456.28;;;9.33;79.53
82375;BME280;72005;50.496;15.798;2024-03-23T13:51:58;94436.16;;;9.23;79.97
82375;BME280;72005;50.496;15.798;2024-03-23T13:54:27;94448.28;;;9.19;79.48
82375;BME280;72005;50.496;15.798;2024-03-23T13:56:55;94452.06;;;8.97;79.62
82375;BME280;72005;50.496;15.798;2024-03-23T13:59:20;94457.84;;;8.94;79.06
82375;BME280;72005;50.496;15.798;2024-03-23T14:01:49;94497.81;;;8.66;79.17